Atkins, VA

7:13 PM EDT on September 04, 2015 (GMT -0400)
Mountain Empire | | Change Station
CLOSE
Current Station
Airport
Location: Marion,
Elevation: 2559 ft
Nearby Weather Stations

Elev 2559 ft 36.89 °N, 81.35 °W | Updated 18 minutes ago

Overcast
Overcast
78 °F
Feels Like 78 °F
N
7
Wind Variable Wind from ESE

Today
High -- | Low -- °F
--% Chance of Precip.
Yesterday
High -- | Low -- °F
Precip. -- in
6:58 AM 7:49 PM
Waning Gibbous, 55% visible
Pressure 30.16 in
Visibility 10.0 miles
Clouds Scattered Clouds 6000 ft
Mostly Cloudy 7000 ft
Dew Point 63 °F
Humidity 58%
Rainfall 0.00 in
Snow Depth Not available.
UV 0 out of 12
Pollen 8.80 out of 12
Air Quality Not available.
Flu Activity Not available.
METAR KMKJ 042255Z AUTO 11006KT 10SM SCT060 BKN070 26/17 A3016 RMK AO2 LTG DSNT E AND SW T02580170
Pressure 30.16 in
Visibility 10.0 miles
Clouds Scattered Clouds 6000 ft
Mostly Cloudy 7000 ft
Dew Point 63 °F
Humidity 58%
Rainfall 0.00 in
Snow Depth Not available.
UV 0 out of 12
Pollen 8.80 out of 12
Air Quality Not available.
Flu Activity Not available.
METAR KMKJ 042255Z AUTO 11006KT 10SM SCT060 BKN070 26/17 A3016 RMK AO2 LTG DSNT E AND SW T02580170

10-Day Weather Forecast

×

Almanac

Astronomy

Sep. 04, 2015 Rise Set
Actual Time
Civil Twilight
Nautical Twilight
Astronomical Twilight
Moon
Length of Visible Light
Length of Day
Tomorrow will be .
, % of the Moon is Illuminated

Today's Extremes

State Highs State Lows

Community

WunderPhotos

Upload Photos

1,852,331 photos uploaded!

WunderBlogs® & News

Nearby

Air Quality

  Air Quality AQ Index Pollutant
Not available.

Snow Depth

Station Depth Elevation

Earthquake Activity

City Distance Mag. Time & Date
Minimum magnitude displayed is 2.5.

Coastal Water Temperatures

Place Temperature

Stations

Nearby Weather Stations

Station Location Temp. Windchill Dew Point Humidity Wind Precip. Elev Updated Type